sensor_id;sensor_type;location;lat;lon;timestamp;pressure;altitude;pressure_sealevel;temperature;humidity
75788;BME280;64406;50.024;14.492;2023-04-25T00:01:24;97256.25;;;7.18;67.39
75788;BME280;64406;50.024;14.492;2023-04-25T00:03:50;97227.97;;;7.06;66.74
75788;BME280;64406;50.024;14.492;2023-04-25T00:06:16;97256.50;;;7.21;66.99
75788;BME280;64406;50.024;14.492;2023-04-25T00:08:43;97223.91;;;7.09;66.53
75788;BME280;64406;50.024;14.492;2023-04-25T00:11:09;97237.59;;;7.07;67.36
75788;BME280;64406;50.024;14.492;2023-04-25T00:13:35;97230.56;;;7.12;66.67
75788;BME280;64406;50.024;14.492;2023-04-25T00:16:01;97238.38;;;7.08;67.27
75788;BME280;64406;50.024;14.492;2023-04-25T00:18:27;97220.63;;;6.83;67.91
75788;BME280;64406;50.024;14.492;2023-04-25T00:20:55;97242.28;;;6.87;67.94
75788;BME280;64406;50.024;14.492;2023-04-25T00:23:21;97242.53;;;6.90;67.89
75788;BME280;64406;50.024;14.492;2023-04-25T00:25:48;97253.25;;;6.90;68.04
75788;BME280;64406;50.024;14.492;2023-04-25T00:28:14;97239.69;;;6.76;68.70
75788;BME280;64406;50.024;14.492;2023-04-25T00:30:40;97234.34;;;6.76;68.66
75788;BME280;64406;50.024;14.492;2023-04-25T00:33:06;97240.75;;;6.75;68.64
75788;BME280;64406;50.024;14.492;2023-04-25T00:35:33;97250.09;;;6.78;69.21
75788;BME280;64406;50.024;14.492;2023-04-25T00:37:59;97251.47;;;6.75;69.42
75788;BME280;64406;50.024;14.492;2023-04-25T00:40:25;97255.75;;;6.76;69.22
75788;BME280;64406;50.024;14.492;2023-04-25T00:42:51;97253.66;;;6.68;69.33
75788;BME280;64406;50.024;14.492;2023-04-25T00:45:18;97244.84;;;6.63;70.17
75788;BME280;64406;50.024;14.492;2023-04-25T00:47:45;97251.28;;;6.62;70.18
75788;BME280;64406;50.024;14.492;2023-04-25T00:50:11;97240.13;;;6.44;70.83
75788;BME280;64406;50.024;14.492;2023-04-25T00:52:42;97245.31;;;6.25;72.00
75788;BME280;64406;50.024;14.492;2023-04-25T00:55:09;97237.38;;;6.10;72.57
75788;BME280;64406;50.024;14.492;2023-04-25T00:57:36;97229.66;;;5.93;73.31
75788;BME280;64406;50.024;14.492;2023-04-25T01:00:04;97238.75;;;5.97;73.66
75788;BME280;64406;50.024;14.492;2023-04-25T01:02:32;97239.28;;;5.89;73.70
75788;BME280;64406;50.024;14.492;2023-04-25T01:04:58;97218.78;;;5.64;74.35
75788;BME280;64406;50.024;14.492;2023-04-25T01:07:24;97231.88;;;5.61;74.94
75788;BME280;64406;50.024;14.492;2023-04-25T01:09:51;97230.84;;;5.57;75.12
75788;BME280;64406;50.024;14.492;2023-04-25T01:12:19;97217.47;;;5.52;74.90
75788;BME280;64406;50.024;14.492;2023-04-25T01:14:46;97234.03;;;5.59;75.29
75788;BME280;64406;50.024;14.492;2023-04-25T01:17:11;97219.34;;;5.41;75.57
75788;BME280;64406;50.024;14.492;2023-04-25T01:19:38;97233.78;;;5.40;75.88
75788;BME280;64406;50.024;14.492;2023-04-25T01:22:04;97241.03;;;5.29;76.24
75788;BME280;64406;50.024;14.492;2023-04-25T01:24:33;97234.59;;;5.25;76.66
75788;BME280;64406;50.024;14.492;2023-04-25T01:27:00;97217.78;;;5.14;76.68
75788;BME280;64406;50.024;14.492;2023-04-25T01:29:27;97218.34;;;5.06;77.63
75788;BME280;64406;50.024;14.492;2023-04-25T01:31:53;97229.56;;;4.98;78.20
75788;BME280;64406;50.024;14.492;2023-04-25T01:34:19;97213.81;;;4.86;78.33
75788;BME280;64406;50.024;14.492;2023-04-25T01:36:48;97231.41;;;4.77;78.85
75788;BME280;64406;50.024;14.492;2023-04-25T01:39:15;97228.72;;;4.67;79.36
75788;BME280;64406;50.024;14.492;2023-04-25T01:41:42;97207.09;;;4.53;79.89
75788;BME280;64406;50.024;14.492;2023-04-25T01:44:08;97215.13;;;4.58;80.25
75788;BME280;64406;50.024;14.492;2023-04-25T01:46:34;97205.75;;;4.41;80.73
75788;BME280;64406;50.024;14.492;2023-04-25T01:49:00;97217.78;;;4.53;80.44
75788;BME280;64406;50.024;14.492;2023-04-25T01:51:26;97230.06;;;4.49;80.92
75788;BME280;64406;50.024;14.492;2023-04-25T01:53:52;97230.56;;;4.51;80.93
75788;BME280;64406;50.024;14.492;2023-04-25T01:56:18;97223.06;;;4.33;81.72
75788;BME280;64406;50.024;14.492;2023-04-25T01:58:46;97208.09;;;4.22;81.93
75788;BME280;64406;50.024;14.492;2023-04-25T02:01:12;97230.25;;;4.32;82.46
75788;BME280;64406;50.024;14.492;2023-04-25T02:03:37;97224.38;;;4.25;82.25
75788;BME280;64406;50.024;14.492;2023-04-25T02:06:03;97244.94;;;4.40;82.17
75788;BME280;64406;50.024;14.492;2023-04-25T02:08:29;97209.97;;;4.16;82.51
75788;BME280;64406;50.024;14.492;2023-04-25T02:10:55;97245.19;;;4.23;82.80
75788;BME280;64406;50.024;14.492;2023-04-25T02:13:21;97212.88;;;4.09;82.91
75788;BME280;64406;50.024;14.492;2023-04-25T02:15:46;97223.53;;;4.04;83.03
75788;BME280;64406;50.024;14.492;2023-04-25T02:18:12;97222.97;;;4.02;83.67
75788;BME280;64406;50.024;14.492;2023-04-25T02:20:38;97184.50;;;3.73;83.46
75788;BME280;64406;50.024;14.492;2023-04-25T02:23:04;97228.81;;;3.99;84.03
75788;BME280;64406;50.024;14.492;2023-04-25T02:25:30;97220.53;;;3.96;83.83
75788;BME280;64406;50.024;14.492;2023-04-25T02:27:56;97208.75;;;3.81;84.51
75788;BME280;64406;50.024;14.492;2023-04-25T02:30:21;97197.28;;;3.71;84.99
75788;BME280;64406;50.024;14.492;2023-04-25T02:32:47;97217.28;;;3.78;85.21
75788;BME280;64406;50.024;14.492;2023-04-25T02:35:13;97191.91;;;3.66;85.15
75788;BME280;64406;50.024;14.492;2023-04-25T02:37:39;97211.69;;;3.80;85.43
75788;BME280;64406;50.024;14.492;2023-04-25T02:40:05;97179.13;;;3.58;85.52
75788;BME280;64406;50.024;14.492;2023-04-25T02:42:32;97206.09;;;3.76;85.82
75788;BME280;64406;50.024;14.492;2023-04-25T02:44:57;97165.00;;;3.57;84.96
75788;BME280;64406;50.024;14.492;2023-04-25T02:47:23;97179.16;;;3.73;84.93
75788;BME280;64406;50.024;14.492;2023-04-25T02:49:49;97181.31;;;3.76;85.14
75788;BME280;64406;50.024;14.492;2023-04-25T02:52:16;97206.94;;;3.87;84.47
75788;BME280;64406;50.024;14.492;2023-04-25T02:54:42;97205.84;;;3.88;84.52
75788;BME280;64406;50.024;14.492;2023-04-25T02:57:08;97189.06;;;3.77;84.24
75788;BME280;64406;50.024;14.492;2023-04-25T02:59:35;97196.81;;;3.89;84.17
75788;BME280;64406;50.024;14.492;2023-04-25T03:02:01;97192.59;;;3.98;84.03
75788;BME280;64406;50.024;14.492;2023-04-25T03:04:27;97190.22;;;4.07;83.69
75788;BME280;64406;50.024;14.492;2023-04-25T03:06:53;97179.00;;;4.00;83.46
75788;BME280;64406;50.024;14.492;2023-04-25T03:09:19;97185.91;;;3.96;83.76
75788;BME280;64406;50.024;14.492;2023-04-25T03:11:45;97179.53;;;4.02;83.58
75788;BME280;64406;50.024;14.492;2023-04-25T03:14:13;97194.44;;;3.98;83.47
75788;BME280;64406;50.024;14.492;2023-04-25T03:16:39;97187.22;;;3.88;83.93
75788;BME280;64406;50.024;14.492;2023-04-25T03:19:05;97178.41;;;3.82;84.11
75788;BME280;64406;50.024;14.492;2023-04-25T03:21:32;97183.00;;;4.07;83.71
75788;BME280;64406;50.024;14.492;2023-04-25T03:23:58;97183.03;;;4.13;83.33
75788;BME280;64406;50.024;14.492;2023-04-25T03:26:24;97180.13;;;4.24;82.91
75788;BME280;64406;50.024;14.492;2023-04-25T03:28:50;97165.19;;;4.13;83.04
75788;BME280;64406;50.024;14.492;2023-04-25T03:31:16;97141.97;;;4.08;83.15
75788;BME280;64406;50.024;14.492;2023-04-25T03:33:48;97109.16;;;3.88;82.62
75788;BME280;64406;50.024;14.492;2023-04-25T03:36:14;97141.50;;;4.32;81.99
75788;BME280;64406;50.024;14.492;2023-04-25T03:38:39;97187.09;;;4.61;81.54
75788;BME280;64406;50.024;14.492;2023-04-25T03:41:07;97174.03;;;4.54;81.47
75788;BME280;64406;50.024;14.492;2023-04-25T03:43:33;97181.78;;;4.56;81.04
75788;BME280;64406;50.024;14.492;2023-04-25T03:45:58;97175.66;;;4.66;80.19
75788;BME280;64406;50.024;14.492;2023-04-25T03:48:25;97178.06;;;4.77;80.31
75788;BME280;64406;50.024;14.492;2023-04-25T03:50:52;97165.50;;;4.68;79.88
75788;BME280;64406;50.024;14.492;2023-04-25T03:53:18;97176.72;;;4.85;79.63
75788;BME280;64406;50.024;14.492;2023-04-25T03:55:45;97173.25;;;4.79;80.32
75788;BME280;64406;50.024;14.492;2023-04-25T03:58:10;97179.13;;;4.91;80.46
75788;BME280;64406;50.024;14.492;2023-04-25T04:00:37;97184.72;;;4.95;79.78
75788;BME280;64406;50.024;14.492;2023-04-25T04:03:03;97187.94;;;4.97;79.90
75788;BME280;64406;50.024;14.492;2023-04-25T04:05:28;97169.75;;;4.94;79.65
75788;BME280;64406;50.024;14.492;2023-04-25T04:07:54;97185.78;;;5.09;79.85
75788;BME280;64406;50.024;14.492;2023-04-25T04:10:21;97182.84;;;5.06;79.55
75788;BME280;64406;50.024;14.492;2023-04-25T04:12:46;97183.63;;;5.06;79.55
75788;BME280;64406;50.024;14.492;2023-04-25T04:15:12;97191.66;;;5.06;79.80
75788;BME280;64406;50.024;14.492;2023-04-25T04:17:38;97183.63;;;5.11;79.78
75788;BME280;64406;50.024;14.492;2023-04-25T04:20:05;97179.63;;;5.14;79.72
75788;BME280;64406;50.024;14.492;2023-04-25T04:22:31;97183.63;;;5.22;79.77
75788;BME280;64406;50.024;14.492;2023-04-25T04:24:57;97183.09;;;5.30;78.70
75788;BME280;64406;50.024;14.492;2023-04-25T04:27:23;97187.34;;;5.36;79.11
75788;BME280;64406;50.024;14.492;2023-04-25T04:29:48;97171.56;;;5.39;78.38
75788;BME280;64406;50.024;14.492;2023-04-25T04:32:16;97186.25;;;5.42;78.40
75788;BME280;64406;50.024;14.492;2023-04-25T04:34:42;97175.03;;;5.45;78.21
75788;BME280;64406;50.024;14.492;2023-04-25T04:37:08;97177.13;;;5.53;78.00
75788;BME280;64406;50.024;14.492;2023-04-25T04:39:35;97186.72;;;5.64;77.88
75788;BME280;64406;50.024;14.492;2023-04-25T04:42:03;97184.03;;;5.69;77.64
75788;BME280;64406;50.024;14.492;2023-04-25T04:44:31;97170.63;;;5.80;77.01
75788;BME280;64406;50.024;14.492;2023-04-25T04:46:59;97174.38;;;5.84;76.77
75788;BME280;64406;50.024;14.492;2023-04-25T04:49:25;97180.50;;;5.84;77.03
75788;BME280;64406;50.024;14.492;2023-04-25T04:51:51;97170.41;;;5.71;77.04
75788;BME280;64406;50.024;14.492;2023-04-25T04:54:17;97182.69;;;5.67;77.43
75788;BME280;64406;50.024;14.492;2023-04-25T04:56:43;97176.06;;;5.59;78.13
75788;BME280;64406;50.024;14.492;2023-04-25T04:59:09;97189.16;;;5.56;78.60
75788;BME280;64406;50.024;14.492;2023-04-25T05:01:35;97182.75;;;5.62;77.71
75788;BME280;64406;50.024;14.492;2023-04-25T05:04:01;97190.63;;;5.87;76.66
75788;BME280;64406;50.024;14.492;2023-04-25T05:06:28;97180.44;;;6.05;76.28
75788;BME280;64406;50.024;14.492;2023-04-25T05:08:55;97189.44;;;6.24;75.30
75788;BME280;64406;50.024;14.492;2023-04-25T05:11:22;97188.00;;;6.42;74.16
75788;BME280;64406;50.024;14.492;2023-04-25T05:13:50;97197.34;;;6.44;74.50
75788;BME280;64406;50.024;14.492;2023-04-25T05:16:16;97176.19;;;6.48;74.18
75788;BME280;64406;50.024;14.492;2023-04-25T05:18:42;97180.88;;;6.66;73.96
75788;BME280;64406;50.024;14.492;2023-04-25T05:21:07;97183.22;;;6.73;73.88
75788;BME280;64406;50.024;14.492;2023-04-25T05:23:33;97183.19;;;6.78;73.53
75788;BME280;64406;50.024;14.492;2023-04-25T05:25:59;97184.84;;;6.74;73.02
75788;BME280;64406;50.024;14.492;2023-04-25T05:28:27;97180.63;;;6.63;73.13
75788;BME280;64406;50.024;14.492;2023-04-25T05:30:53;97186.47;;;6.70;73.92
75788;BME280;64406;50.024;14.492;2023-04-25T05:33:19;97184.59;;;6.70;73.09
75788;BME280;64406;50.024;14.492;2023-04-25T05:35:45;97185.91;;;6.73;73.07
75788;BME280;64406;50.024;14.492;2023-04-25T05:38:11;97184.59;;;6.70;72.79
75788;BME280;64406;50.024;14.492;2023-04-25T05:40:37;97182.50;;;6.67;72.83
75788;BME280;64406;50.024;14.492;2023-04-25T05:43:03;97182.75;;;6.66;73.19
75788;BME280;64406;50.024;14.492;2023-04-25T05:45:30;97165.06;;;6.70;73.03
75788;BME280;64406;50.024;14.492;2023-04-25T05:47:59;97177.44;;;6.95;72.68
75788;BME280;64406;50.024;14.492;2023-04-25T05:50:28;97175.34;;;6.87;72.32
75788;BME280;64406;50.024;14.492;2023-04-25T05:52:55;97177.31;;;6.81;71.85
75788;BME280;64406;50.024;14.492;2023-04-25T05:55:20;97172.75;;;6.81;72.06
75788;BME280;64406;50.024;14.492;2023-04-25T05:57:47;97167.75;;;6.99;72.45
75788;BME280;64406;50.024;14.492;2023-04-25T06:00:13;97195.28;;;7.04;71.97
75788;BME280;64406;50.024;14.492;2023-04-25T06:02:41;97188.13;;;7.00;71.97
75788;BME280;64406;50.024;14.492;2023-04-25T06:05:08;97181.28;;;6.84;72.27
75788;BME280;64406;50.024;14.492;2023-04-25T06:07:34;97182.78;;;7.00;71.93
75788;BME280;64406;50.024;14.492;2023-04-25T06:10:00;97176.84;;;7.03;71.81
75788;BME280;64406;50.024;14.492;2023-04-25T06:12:26;97188.03;;;7.10;71.78
75788;BME280;64406;50.024;14.492;2023-04-25T06:14:52;97188.63;;;7.31;71.21
75788;BME280;64406;50.024;14.492;2023-04-25T06:17:19;97184.47;;;7.44;70.25
75788;BME280;64406;50.024;14.492;2023-04-25T06:19:44;97181.28;;;7.66;70.24
75788;BME280;64406;50.024;14.492;2023-04-25T06:22:10;97155.38;;;7.61;70.20
75788;BME280;64406;50.024;14.492;2023-04-25T06:24:35;97173.25;;;7.66;69.64
75788;BME280;64406;50.024;14.492;2023-04-25T06:27:01;97170.06;;;7.63;69.78
75788;BME280;64406;50.024;14.492;2023-04-25T06:29:27;97173.31;;;7.60;69.74
75788;BME280;64406;50.024;14.492;2023-04-25T06:31:52;97166.09;;;7.61;70.34
75788;BME280;64406;50.024;14.492;2023-04-25T06:34:18;97170.41;;;7.57;70.27
75788;BME280;64406;50.024;14.492;2023-04-25T06:36:44;97164.53;;;7.55;70.51
75788;BME280;64406;50.024;14.492;2023-04-25T06:39:10;97178.78;;;7.50;70.83
75788;BME280;64406;50.024;14.492;2023-04-25T06:41:37;97177.59;;;7.61;70.79
75788;BME280;64406;50.024;14.492;2023-04-25T06:44:03;97167.09;;;7.65;70.88
75788;BME280;64406;50.024;14.492;2023-04-25T06:46:29;97177.41;;;7.77;69.93
75788;BME280;64406;50.024;14.492;2023-04-25T06:48:54;97178.16;;;7.82;69.70
75788;BME280;64406;50.024;14.492;2023-04-25T06:51:21;97171.25;;;8.00;69.20
75788;BME280;64406;50.024;14.492;2023-04-25T06:53:47;97163.75;;;7.97;68.97
75788;BME280;64406;50.024;14.492;2023-04-25T06:56:13;97164.16;;;7.85;69.88
75788;BME280;64406;50.024;14.492;2023-04-25T06:58:38;97161.84;;;7.79;69.76
75788;BME280;64406;50.024;14.492;2023-04-25T07:01:04;97165.69;;;7.73;70.22
75788;BME280;64406;50.024;14.492;2023-04-25T07:03:30;97168.97;;;7.64;70.91
75788;BME280;64406;50.024;14.492;2023-04-25T07:05:55;97165.50;;;7.64;70.74
75788;BME280;64406;50.024;14.492;2023-04-25T07:08:21;97167.28;;;7.74;70.35
75788;BME280;64406;50.024;14.492;2023-04-25T07:10:47;97165.59;;;7.78;70.43
75788;BME280;64406;50.024;14.492;2023-04-25T07:13:12;97157.31;;;7.79;69.85
75788;BME280;64406;50.024;14.492;2023-04-25T07:15:38;97157.84;;;7.76;69.74
75788;BME280;64406;50.024;14.492;2023-04-25T07:18:04;97167.94;;;7.84;69.92
75788;BME280;64406;50.024;14.492;2023-04-25T07:20:30;97163.81;;;7.73;70.70
75788;BME280;64406;50.024;14.492;2023-04-25T07:22:56;97167.28;;;7.74;69.96
75788;BME280;64406;50.024;14.492;2023-04-25T07:25:22;97159.00;;;7.94;70.14
75788;BME280;64406;50.024;14.492;2023-04-25T07:27:48;97167.41;;;8.06;69.37
75788;BME280;64406;50.024;14.492;2023-04-25T07:30:14;97164.97;;;8.29;69.05
75788;BME280;64406;50.024;14.492;2023-04-25T07:32:40;97168.25;;;8.44;67.92
75788;BME280;64406;50.024;14.492;2023-04-25T07:35:06;97173.19;;;8.56;67.76
75788;BME280;64406;50.024;14.492;2023-04-25T07:37:34;97162.31;;;8.66;67.58
75788;BME280;64406;50.024;14.492;2023-04-25T07:40:00;97174.47;;;8.78;66.97
75788;BME280;64406;50.024;14.492;2023-04-25T07:42:25;97159.97;;;8.79;67.28
75788;BME280;64406;50.024;14.492;2023-04-25T07:44:51;97163.44;;;8.79;67.34
75788;BME280;64406;50.024;14.492;2023-04-25T07:47:17;97167.97;;;8.97;66.37
75788;BME280;64406;50.024;14.492;2023-04-25T07:49:44;97161.25;;;9.14;65.66
75788;BME280;64406;50.024;14.492;2023-04-25T07:52:10;97151.16;;;9.66;64.34
75788;BME280;64406;50.024;14.492;2023-04-25T07:54:36;97163.13;;;9.60;64.12
75788;BME280;64406;50.024;14.492;2023-04-25T07:57:02;97163.75;;;10.34;63.03
75788;BME280;64406;50.024;14.492;2023-04-25T07:59:28;97150.53;;;10.24;62.44
75788;BME280;64406;50.024;14.492;2023-04-25T08:01:54;97154.81;;;10.11;61.40
75788;BME280;64406;50.024;14.492;2023-04-25T08:04:19;97155.13;;;9.96;61.90
75788;BME280;64406;50.024;14.492;2023-04-25T08:06:45;97149.19;;;10.35;60.93
75788;BME280;64406;50.024;14.492;2023-04-25T08:09:11;97159.47;;;10.33;61.75
75788;BME280;64406;50.024;14.492;2023-04-25T08:11:37;97156.16;;;10.36;61.02
75788;BME280;64406;50.024;14.492;2023-04-25T08:14:03;97146.44;;;10.13;61.16
75788;BME280;64406;50.024;14.492;2023-04-25T08:16:28;97140.84;;;10.09;62.61
75788;BME280;64406;50.024;14.492;2023-04-25T08:18:57;97139.00;;;9.68;61.62
75788;BME280;64406;50.024;14.492;2023-04-25T08:21:30;97142.19;;;9.57;62.92
75788;BME280;64406;50.024;14.492;2023-04-25T08:23:57;97142.69;;;9.72;62.77
75788;BME280;64406;50.024;14.492;2023-04-25T08:26:24;97150.94;;;9.48;62.42
75788;BME280;64406;50.024;14.492;2023-04-25T08:28:50;97146.19;;;9.73;61.97
75788;BME280;64406;50.024;14.492;2023-04-25T08:31:16;97152.34;;;10.01;60.19
75788;BME280;64406;50.024;14.492;2023-04-25T08:33:42;97147.28;;;10.72;59.86
75788;BME280;64406;50.024;14.492;2023-04-25T08:36:08;97149.50;;;10.92;58.41
75788;BME280;64406;50.024;14.492;2023-04-25T08:38:34;97132.28;;;11.33;57.12
75788;BME280;64406;50.024;14.492;2023-04-25T08:41:00;97139.22;;;11.25;57.26
75788;BME280;64406;50.024;14.492;2023-04-25T08:43:30;97130.72;;;11.40;55.71
75788;BME280;64406;50.024;14.492;2023-04-25T08:45:59;97153.03;;;11.01;56.24
75788;BME280;64406;50.024;14.492;2023-04-25T08:48:32;97145.38;;;11.17;57.04
75788;BME280;64406;50.024;14.492;2023-04-25T08:50:58;97143.59;;;10.68;56.80
75788;BME280;64406;50.024;14.492;2023-04-25T08:53:31;97147.66;;;10.79;56.95
75788;BME280;64406;50.024;14.492;2023-04-25T08:55:59;97147.94;;;11.00;56.67
75788;BME280;64406;50.024;14.492;2023-04-25T08:58:25;97143.78;;;11.16;58.35
75788;BME280;64406;50.024;14.492;2023-04-25T09:00:52;97141.34;;;11.06;57.33
75788;BME280;64406;50.024;14.492;2023-04-25T09:03:18;97152.66;;;10.94;57.74
75788;BME280;64406;50.024;14.492;2023-04-25T09:05:44;97147.06;;;11.13;56.66
75788;BME280;64406;50.024;14.492;2023-04-25T09:08:10;97148.41;;;11.24;56.63
75788;BME280;64406;50.024;14.492;2023-04-25T09:10:36;97155.34;;;10.94;56.68
75788;BME280;64406;50.024;14.492;2023-04-25T09:15:29;97153.72;;;10.84;55.19
75788;BME280;64406;50.024;14.492;2023-04-25T09:17:56;97156.53;;;10.79;54.81
75788;BME280;64406;50.024;14.492;2023-04-25T09:20:22;97164.47;;;10.62;56.69
75788;BME280;64406;50.024;14.492;2023-04-25T09:22:47;97151.31;;;10.60;57.65
75788;BME280;64406;50.024;14.492;2023-04-25T09:25:13;97162.63;;;10.49;56.88
75788;BME280;64406;50.024;14.492;2023-04-25T09:27:52;97165.66;;;10.33;56.18
75788;BME280;64406;50.024;14.492;2023-04-25T09:30:18;97173.25;;;10.31;57.68
75788;BME280;64406;50.024;14.492;2023-04-25T09:32:44;97161.16;;;10.29;58.20
75788;BME280;64406;50.024;14.492;2023-04-25T09:35:10;97167.88;;;10.18;59.40
75788;BME280;64406;50.024;14.492;2023-04-25T09:37:37;97158.22;;;9.89;59.83
75788;BME280;64406;50.024;14.492;2023-04-25T09:40:05;97168.75;;;10.13;60.38
75788;BME280;64406;50.024;14.492;2023-04-25T09:42:32;97167.34;;;10.16;60.39
75788;BME280;64406;50.024;14.492;2023-04-25T09:45:00;97171.06;;;10.06;59.82
75788;BME280;64406;50.024;14.492;2023-04-25T09:47:29;97171.94;;;10.29;60.17
75788;BME280;64406;50.024;14.492;2023-04-25T09:49:55;97180.38;;;10.50;61.13
75788;BME280;64406;50.024;14.492;2023-04-25T09:52:23;97164.19;;;10.64;59.55
75788;BME280;64406;50.024;14.492;2023-04-25T09:54:50;97168.59;;;10.82;58.47
75788;BME280;64406;50.024;14.492;2023-04-25T09:59:50;97175.88;;;11.04;56.22
75788;BME280;64406;50.024;14.492;2023-04-25T10:02:19;97165.31;;;11.78;54.83
75788;BME280;64406;50.024;14.492;2023-04-25T10:04:55;97165.91;;;11.04;56.06
75788;BME280;64406;50.024;14.492;2023-04-25T10:07:26;97190.91;;;10.24;58.16
75788;BME280;64406;50.024;14.492;2023-04-25T10:10:01;97197.84;;;10.39;58.27
75788;BME280;64406;50.024;14.492;2023-04-25T10:12:29;97204.22;;;10.43;56.79
75788;BME280;64406;50.024;14.492;2023-04-25T10:14:57;97202.66;;;9.87;58.17
75788;BME280;64406;50.024;14.492;2023-04-25T10:17:24;97210.09;;;9.62;60.48
75788;BME280;64406;50.024;14.492;2023-04-25T10:19:52;97219.22;;;9.34;61.32
75788;BME280;64406;50.024;14.492;2023-04-25T10:24:54;97222.28;;;8.57;64.77
75788;BME280;64406;50.024;14.492;2023-04-25T10:27:21;97229.19;;;8.82;64.72
75788;BME280;64406;50.024;14.492;2023-04-25T10:30:00;97237.06;;;9.11;66.11
75788;BME280;64406;50.024;14.492;2023-04-25T10:32:26;97237.34;;;8.34;68.06
75788;BME280;64406;50.024;14.492;2023-04-25T10:34:52;97257.44;;;8.98;68.07
75788;BME280;64406;50.024;14.492;2023-04-25T10:37:19;97243.28;;;8.92;67.40
75788;BME280;64406;50.024;14.492;2023-04-25T10:39:45;97254.66;;;8.47;71.12
75788;BME280;64406;50.024;14.492;2023-04-25T10:42:12;97254.78;;;8.12;70.46
75788;BME280;64406;50.024;14.492;2023-04-25T10:44:38;97255.16;;;8.25;72.54
75788;BME280;64406;50.024;14.492;2023-04-25T10:47:07;97263.06;;;8.40;70.15
75788;BME280;64406;50.024;14.492;2023-04-25T10:49:34;97255.50;;;8.18;70.68
75788;BME280;64406;50.024;14.492;2023-04-25T10:54:46;97264.00;;;7.77;70.21
75788;BME280;64406;50.024;14.492;2023-04-25T10:57:31;97266.38;;;7.79;69.80
75788;BME280;64406;50.024;14.492;2023-04-25T11:02:46;97264.34;;;7.71;66.13
75788;BME280;64406;50.024;14.492;2023-04-25T11:07:52;97273.41;;;7.75;66.74
75788;BME280;64406;50.024;14.492;2023-04-25T11:10:19;97261.56;;;7.52;66.53
75788;BME280;64406;50.024;14.492;2023-04-25T11:12:46;97265.66;;;7.73;67.26
75788;BME280;64406;50.024;14.492;2023-04-25T11:15:12;97275.19;;;7.84;65.62
75788;BME280;64406;50.024;14.492;2023-04-25T11:17:39;97278.84;;;7.94;66.16
75788;BME280;64406;50.024;14.492;2023-04-25T11:20:07;97290.44;;;8.13;66.15
75788;BME280;64406;50.024;14.492;2023-04-25T11:22:38;97284.56;;;8.11;66.52
75788;BME280;64406;50.024;14.492;2023-04-25T11:25:06;97284.34;;;8.07;66.74
75788;BME280;64406;50.024;14.492;2023-04-25T11:27:33;97285.91;;;8.56;65.51
75788;BME280;64406;50.024;14.492;2023-04-25T11:29:58;97277.38;;;8.92;64.59
75788;BME280;64406;50.024;14.492;2023-04-25T11:32:24;97277.66;;;8.90;63.82
75788;BME280;64406;50.024;14.492;2023-04-25T11:34:49;97283.47;;;8.97;64.70
75788;BME280;64406;50.024;14.492;2023-04-25T11:37:15;97280.03;;;8.54;64.23
75788;BME280;64406;50.024;14.492;2023-04-25T11:39:44;97284.72;;;8.43;66.46
75788;BME280;64406;50.024;14.492;2023-04-25T11:42:11;97288.38;;;8.05;67.04
75788;BME280;64406;50.024;14.492;2023-04-25T11:44:40;97282.50;;;8.27;66.53
75788;BME280;64406;50.024;14.492;2023-04-25T11:47:06;97274.88;;;8.39;65.13
75788;BME280;64406;50.024;14.492;2023-04-25T11:49:35;97289.72;;;8.74;65.09
75788;BME280;64406;50.024;14.492;2023-04-25T11:52:07;97282.38;;;8.80;63.71
75788;BME280;64406;50.024;14.492;2023-04-25T11:54:35;97277.38;;;10.03;60.34
75788;BME280;64406;50.024;14.492;2023-04-25T11:57:01;97277.28;;;9.95;59.19
75788;BME280;64406;50.024;14.492;2023-04-25T11:59:27;97280.41;;;10.57;57.57
75788;BME280;64406;50.024;14.492;2023-04-25T12:01:53;97274.13;;;10.98;55.73
75788;BME280;64406;50.024;14.492;2023-04-25T12:04:23;97274.19;;;10.01;54.95
75788;BME280;64406;50.024;14.492;2023-04-25T12:06:54;97269.88;;;9.73;54.96
75788;BME280;64406;50.024;14.492;2023-04-25T12:09:30;97262.72;;;9.96;56.82
75788;BME280;64406;50.024;14.492;2023-04-25T12:11:59;97266.13;;;10.15;54.57
75788;BME280;64406;50.024;14.492;2023-04-25T12:14:32;97273.25;;;10.25;54.55
75788;BME280;64406;50.024;14.492;2023-04-25T12:17:04;97274.88;;;9.79;51.88
75788;BME280;64406;50.024;14.492;2023-04-25T12:19:37;97262.38;;;10.44;52.62
75788;BME280;64406;50.024;14.492;2023-04-25T12:22:24;97261.94;;;10.09;51.57
75788;BME280;64406;50.024;14.492;2023-04-25T12:24:50;97262.06;;;10.81;50.40
75788;BME280;64406;50.024;14.492;2023-04-25T12:27:16;97255.81;;;11.08;50.08
75788;BME280;64406;50.024;14.492;2023-04-25T12:29:54;97258.72;;;11.65;49.21
75788;BME280;64406;50.024;14.492;2023-04-25T12:32:20;97266.72;;;11.26;47.28
75788;BME280;64406;50.024;14.492;2023-04-25T12:34:46;97253.38;;;12.05;46.68
75788;BME280;64406;50.024;14.492;2023-04-25T12:37:12;97259.63;;;11.61;45.99
75788;BME280;64406;50.024;14.492;2023-04-25T12:39:38;97243.66;;;12.52;45.03
75788;BME280;64406;50.024;14.492;2023-04-25T12:42:04;97240.13;;;13.73;42.89
75788;BME280;64406;50.024;14.492;2023-04-25T12:44:30;97252.09;;;15.20;39.39
75788;BME280;64406;50.024;14.492;2023-04-25T12:46:56;97243.88;;;15.08;38.07
75788;BME280;64406;50.024;14.492;2023-04-25T12:49:22;97240.09;;;17.25;36.09
75788;BME280;64406;50.024;14.492;2023-04-25T12:51:48;97253.44;;;17.58;33.08
75788;BME280;64406;50.024;14.492;2023-04-25T12:54:14;97257.22;;;14.92;37.09
75788;BME280;64406;50.024;14.492;2023-04-25T12:56:40;97254.63;;;14.54;38.92
75788;BME280;64406;50.024;14.492;2023-04-25T12:59:07;97250.69;;;14.13;39.50
75788;BME280;64406;50.024;14.492;2023-04-25T13:01:32;97255.97;;;13.02;41.24
75788;BME280;64406;50.024;14.492;2023-04-25T13:03:58;97257.44;;;15.08;36.31
75788;BME280;64406;50.024;14.492;2023-04-25T13:06:24;97275.41;;;12.38;41.96
75788;BME280;64406;50.024;14.492;2023-04-25T13:08:50;97271.03;;;12.11;43.25
75788;BME280;64406;50.024;14.492;2023-04-25T13:11:15;97278.97;;;11.54;45.43